Mill Spring, Missouri
Current Conditions -  °F | °C
As of 4:53 PM on Thursday 23 Oct 2014 (Local Time) from KPOF Reporting Station
Clear Clear  
Wind Chill: 15°   Ceiling: Unl
Heat Index: 15°   Visibility: 8mi
Dew Point:   Wind: 7mph
Humidity: 58%   Direction: 210°SSW
Pressure: 30.15"   Gusts: NA
Location:  37.06°N, 90.68°W
Report Text: KPOF 232153Z AUTO 21006KT 8SM CLR 15/07 A3015 RMK AO2 SLP211 T01500067
Loading
Personal Weather Stations






























Interactive Weather Map
Tropical Storm Tracking
New forecast layout! Learn more

10-Day Weather Forecast

Advertisements
Track Severe Weather on mobile